createdAt,value
2022-10-11T00:02:08.654Z,1007.5
2022-10-11T00:04:08.700Z,1007.4
2022-10-11T00:07:08.658Z,1007.4
2022-10-11T00:09:08.663Z,1007.5
2022-10-11T00:11:08.640Z,1007.5
2022-10-11T00:14:08.691Z,1007.5
2022-10-11T00:16:09.155Z,1007.5
2022-10-11T00:19:08.669Z,1007.5
2022-10-11T00:22:08.650Z,1007.4
2022-10-11T00:25:08.667Z,1007.3
2022-10-11T00:27:08.679Z,1007.4
2022-10-11T00:29:08.672Z,1007.4
2022-10-11T00:32:08.694Z,1007.4
2022-10-11T00:35:08.680Z,1007.5
2022-10-11T00:38:08.688Z,1007.5
2022-10-11T00:41:08.657Z,1007.5
2022-10-11T00:43:08.706Z,1007.5
2022-10-11T00:46:08.980Z,1007.5
2022-10-11T00:49:08.692Z,1007.5
2022-10-11T00:52:08.658Z,1007.6
2022-10-11T00:54:08.679Z,1007.6
2022-10-11T00:56:09.125Z,1007.6
2022-10-11T00:59:08.724Z,1007.5
2022-10-11T01:01:08.834Z,1007.6
2022-10-11T01:04:08.668Z,1007.6
2022-10-11T01:07:08.700Z,1007.6
2022-10-11T01:10:08.677Z,1007.6
2022-10-11T01:14:08.681Z,1007.7
2022-10-11T01:16:18.962Z,1007.8
2022-10-11T01:19:08.665Z,1007.7
2022-10-11T01:21:08.676Z,1007.7
2022-10-11T01:24:08.997Z,1007.8
2022-10-11T01:27:08.712Z,1007.7
2022-10-11T01:30:08.659Z,1007.8
2022-10-11T01:32:08.704Z,1007.7
2022-10-11T01:35:08.709Z,1007.7
2022-10-11T01:38:08.679Z,1007.7
2022-10-11T01:40:08.703Z,1007.8
2022-10-11T01:43:08.692Z,1007.8
2022-10-11T01:46:08.860Z,1007.9
2022-10-11T01:48:08.661Z,1007.9
2022-10-11T01:50:08.671Z,1007.9
2022-10-11T01:52:08.675Z,1007.9
2022-10-11T01:55:10.096Z,1007.9
2022-10-11T01:58:08.677Z,1007.9
2022-10-11T02:01:08.728Z,1007.8
2022-10-11T02:03:08.697Z,1007.8
2022-10-11T02:06:08.971Z,1007.8
2022-10-11T02:09:08.675Z,1007.8
2022-10-11T02:12:08.719Z,1007.8
2022-10-11T02:15:08.674Z,1007.8
2022-10-11T02:17:08.685Z,1007.9
2022-10-11T02:20:08.694Z,1007.9
2022-10-11T02:23:08.717Z,1007.9
2022-10-11T02:26:08.850Z,1007.8
2022-10-11T02:28:08.726Z,1007.8
2022-10-11T02:31:08.675Z,1007.8
2022-10-11T02:34:08.727Z,1007.9
2022-10-11T02:37:08.688Z,1007.9
2022-10-11T02:39:08.716Z,1007.8
2022-10-11T02:42:08.693Z,1007.9
2022-10-11T02:45:08.729Z,1007.9
2022-10-11T02:48:08.703Z,1007.9
2022-10-11T02:50:08.771Z,1007.9
2022-10-11T02:53:08.702Z,1007.9
2022-10-11T02:55:08.681Z,1007.9
2022-10-11T02:58:08.681Z,1008
2022-10-11T03:00:08.703Z,1008
2022-10-11T03:03:08.712Z,1008.1
2022-10-11T03:06:09.036Z,1008
2022-10-11T03:08:08.728Z,1008.1
2022-10-11T03:11:08.673Z,1008.1
2022-10-11T03:14:08.719Z,1008.2
2022-10-11T03:17:31.349Z,1008.2
2022-10-11T03:20:08.676Z,1008.2
2022-10-11T03:22:08.745Z,1008.1
2022-10-11T03:25:08.695Z,1008.1
2022-10-11T03:27:08.737Z,1008.2
2022-10-11T03:30:08.737Z,1008.2
2022-10-11T03:33:08.698Z,1008.2
2022-10-11T03:36:08.994Z,1008.3
2022-10-11T03:38:12.295Z,1008.2
2022-10-11T03:41:08.698Z,1008.3
2022-10-11T03:43:09.070Z,1008.3
2022-10-11T03:46:08.919Z,1008.4
2022-10-11T03:48:08.715Z,1008.3
2022-10-11T03:51:08.725Z,1008.3
2022-10-11T03:54:08.774Z,1008.4
2022-10-11T03:57:08.705Z,1008.4
2022-10-11T03:59:08.703Z,1008.4
2022-10-11T04:02:08.808Z,1008.5
2022-10-11T04:05:08.732Z,1008.5
2022-10-11T04:08:12.052Z,1008.5
2022-10-11T04:11:08.722Z,1008.6
2022-10-11T04:13:08.716Z,1008.6
2022-10-11T04:16:08.971Z,1008.7
2022-10-11T04:18:08.740Z,1008.6
2022-10-11T04:21:08.758Z,1008.7
2022-10-11T04:24:08.730Z,1008.8
2022-10-11T04:27:08.717Z,1008.7
2022-10-11T04:29:08.771Z,1008.8
2022-10-11T04:32:08.734Z,1008.9
2022-10-11T04:34:08.735Z,1008.9
2022-10-11T04:37:08.759Z,1008.9
2022-10-11T04:39:08.756Z,1008.9
2022-10-11T04:42:08.687Z,1009
2022-10-11T04:45:08.750Z,1009
2022-10-11T04:47:08.766Z,1009.1
2022-10-11T04:49:08.746Z,1009.1
2022-10-11T04:52:08.719Z,1009.1
2022-10-11T04:54:08.724Z,1009.1
2022-10-11T04:57:08.908Z,1009.2
2022-10-11T05:00:08.777Z,1009.2
2022-10-11T05:03:08.786Z,1009.3
2022-10-11T05:06:09.060Z,1009.3
2022-10-11T05:08:08.732Z,1009.3
2022-10-11T05:10:08.709Z,1009.3
2022-10-11T05:12:08.762Z,1009.3
2022-10-11T05:15:08.742Z,1009.3
2022-10-11T05:17:08.739Z,1009.3
2022-10-11T05:20:08.748Z,1009.4
2022-10-11T05:23:08.724Z,1009.4
2022-10-11T05:25:08.766Z,1009.4
2022-10-11T05:28:08.825Z,1009.5
2022-10-11T05:31:09.002Z,1009.6
2022-10-11T05:34:08.742Z,1009.6
2022-10-11T05:37:08.778Z,1009.6
2022-10-11T05:40:08.740Z,1009.7
2022-10-11T05:43:08.734Z,1009.7
2022-10-11T05:45:08.702Z,1009.7
2022-10-11T05:47:08.747Z,1009.8
2022-10-11T05:50:08.758Z,1009.8
2022-10-11T05:52:08.720Z,1009.8
2022-10-11T05:54:08.752Z,1009.8
2022-10-11T05:57:08.732Z,1009.8
2022-10-11T05:59:08.718Z,1009.9
2022-10-11T06:01:08.778Z,1009.9
2022-10-11T06:04:08.752Z,1010
2022-10-11T06:06:10.483Z,1010
2022-10-11T06:09:08.742Z,1010.1
2022-10-11T06:12:08.767Z,1010.1
2022-10-11T06:14:08.768Z,1010.1
2022-10-11T06:17:08.752Z,1010.1
2022-10-11T06:19:08.744Z,1010.2
2022-10-11T06:21:08.741Z,1010.2
2022-10-11T06:24:08.751Z,1010.2
2022-10-11T06:26:09.632Z,1010.2
2022-10-11T06:29:08.753Z,1010.2
2022-10-11T06:31:08.746Z,1010.2
2022-10-11T06:33:08.758Z,1010.2
2022-10-11T06:36:08.943Z,1010.3
2022-10-11T06:38:08.741Z,1010.3
2022-10-11T06:40:08.760Z,1010.3
2022-10-11T06:43:08.763Z,1010.4
2022-10-11T06:46:08.868Z,1010.4
2022-10-11T06:48:08.708Z,1010.5
2022-10-11T06:51:08.740Z,1010.5
2022-10-11T06:54:09.806Z,1010.5
2022-10-11T06:56:09.468Z,1010.6
2022-10-11T06:58:08.726Z,1010.6
2022-10-11T07:00:12.446Z,1010.6
2022-10-11T07:03:08.773Z,1010.7
2022-10-11T07:06:09.142Z,1010.7
2022-10-11T07:08:08.745Z,1010.7
2022-10-11T07:11:08.746Z,1010.8
2022-10-11T07:14:08.750Z,1010.8
2022-10-11T07:17:08.768Z,1010.8
2022-10-11T07:20:08.752Z,1010.8
2022-10-11T07:22:08.805Z,1010.9
2022-10-11T07:25:08.817Z,1010.9
2022-10-11T07:28:08.825Z,1010.9
2022-10-11T07:30:08.750Z,1010.9
2022-10-11T07:33:08.727Z,1010.9
2022-10-11T07:36:09.167Z,1010.9
2022-10-11T07:38:08.894Z,1010.9
2022-10-11T07:41:08.744Z,1011
2022-10-11T07:44:08.735Z,1010.9
2022-10-11T07:46:09.382Z,1011
2022-10-11T07:49:08.750Z,1011
2022-10-11T07:51:08.790Z,1011
2022-10-11T07:54:08.793Z,1011
2022-10-11T07:57:08.748Z,1011
2022-10-11T07:59:09.812Z,1011
2022-10-11T08:02:08.753Z,1011.1
2022-10-11T08:04:08.747Z,1011.1
2022-10-11T08:07:08.757Z,1011.1
2022-10-11T08:09:08.778Z,1011.2
2022-10-11T08:11:08.755Z,1011.2
2022-10-11T08:14:08.897Z,1011.3
2022-10-11T08:17:08.750Z,1011.3
2022-10-11T08:19:09.778Z,1011.3
2022-10-11T08:22:08.799Z,1011.3
2022-10-11T08:25:08.746Z,1011.3
2022-10-11T08:28:08.839Z,1011.3
2022-10-11T08:31:08.773Z,1011.4
2022-10-11T08:34:08.748Z,1011.3
2022-10-11T08:37:08.758Z,1011.3
2022-10-11T08:39:08.764Z,1011.3
2022-10-11T08:42:08.763Z,1011.2
2022-10-11T08:45:11.346Z,1011.3
2022-10-11T08:48:08.780Z,1011.3
2022-10-11T08:50:08.790Z,1011.3
2022-10-11T08:52:08.802Z,1011.3
2022-10-11T08:54:08.810Z,1011.3
2022-10-11T08:57:08.771Z,1011.2
2022-10-11T08:59:08.791Z,1011.3
2022-10-11T09:03:09.851Z,1011.3
2022-10-11T09:06:09.248Z,1011.3
2022-10-11T09:09:08.782Z,1011.3
2022-10-11T09:12:08.787Z,1011.2
2022-10-11T09:15:08.760Z,1011.2
2022-10-11T09:17:08.786Z,1011.2
2022-10-11T09:19:08.787Z,1011.2
2022-10-11T09:22:08.765Z,1011.1
2022-10-11T09:24:08.794Z,1011.2
2022-10-11T09:27:08.769Z,1011.1
2022-10-11T09:29:08.899Z,1011.1
2022-10-11T09:31:08.794Z,1011.1
2022-10-11T09:34:08.765Z,1011.1
2022-10-11T09:36:08.962Z,1011.1
2022-10-11T09:39:08.762Z,1011
2022-10-11T09:41:08.787Z,1011
2022-10-11T09:44:08.762Z,1011
2022-10-11T09:47:08.820Z,1011
2022-10-11T09:50:08.765Z,1011
2022-10-11T09:52:08.786Z,1011
2022-10-11T09:55:08.785Z,1011
2022-10-11T09:57:08.794Z,1011
2022-10-11T10:00:08.764Z,1011
2022-10-11T10:03:08.774Z,1011
2022-10-11T10:05:08.792Z,1011
2022-10-11T10:08:08.805Z,1010.9
2022-10-11T10:11:08.773Z,1011
2022-10-11T10:13:08.843Z,1011
2022-10-11T10:16:09.258Z,1010.9
2022-10-11T10:19:08.795Z,1010.9
2022-10-11T10:21:08.809Z,1010.9
2022-10-11T10:24:08.790Z,1010.9
2022-10-11T10:27:08.849Z,1010.9
2022-10-11T10:30:08.873Z,1010.9
2022-10-11T10:33:08.815Z,1010.9
2022-10-11T10:35:08.802Z,1010.9
2022-10-11T10:38:08.900Z,1010.9
2022-10-11T10:41:08.764Z,1010.8
2022-10-11T10:43:08.846Z,1010.8
2022-10-11T10:46:09.026Z,1010.8
2022-10-11T10:48:08.822Z,1010.8
2022-10-11T10:50:08.817Z,1010.8
2022-10-11T10:52:08.804Z,1010.8
2022-10-11T10:54:08.791Z,1010.8
2022-10-11T10:57:08.796Z,1010.8
2022-10-11T10:59:08.800Z,1010.8
2022-10-11T11:02:28.012Z,1010.8
2022-10-11T11:04:08.798Z,1010.8
2022-10-11T11:07:08.771Z,1010.8
2022-10-11T11:10:08.804Z,1010.8
2022-10-11T11:13:08.818Z,1010.7
2022-10-11T11:15:08.832Z,1010.8
2022-10-11T11:18:08.831Z,1010.7
2022-10-11T11:20:08.839Z,1010.7
2022-10-11T11:23:08.865Z,1010.7
2022-10-11T11:26:09.005Z,1010.7
2022-10-11T11:28:08.859Z,1010.7
2022-10-11T11:31:09.099Z,1010.7
2022-10-11T11:34:08.841Z,1010.6
2022-10-11T11:37:08.825Z,1010.6
2022-10-11T11:39:08.822Z,1010.5
2022-10-11T11:41:09.046Z,1010.5
2022-10-11T11:44:08.789Z,1010.5
2022-10-11T11:46:08.787Z,1010.5
2022-10-11T11:48:08.817Z,1010.4
2022-10-11T11:51:08.935Z,1010.4
2022-10-11T11:54:08.822Z,1010.3
2022-10-11T11:56:08.812Z,1010.3
2022-10-11T11:59:08.824Z,1010.3
2022-10-11T12:01:09.110Z,1010.3
2022-10-11T12:03:08.819Z,1010.3
2022-10-11T12:06:08.795Z,1010.3
2022-10-11T12:08:08.837Z,1010.2
2022-10-11T12:11:08.848Z,1010.2
2022-10-11T12:14:08.827Z,1010.2
2022-10-11T12:17:08.792Z,1010.2
2022-10-11T12:19:08.845Z,1010.2
2022-10-11T12:22:08.815Z,1010.2
2022-10-11T12:25:08.829Z,1010.2
2022-10-11T12:28:08.878Z,1010
2022-10-11T12:30:08.816Z,1010.1
2022-10-11T12:32:08.850Z,1010
2022-10-11T12:35:09.886Z,1010
2022-10-11T12:38:08.792Z,1010
2022-10-11T12:40:08.828Z,1010
2022-10-11T12:43:08.804Z,1009.9
2022-10-11T12:45:08.808Z,1009.9
2022-10-11T12:47:08.811Z,1009.9
2022-10-11T12:49:08.824Z,1009.8
2022-10-11T12:51:08.830Z,1009.8
2022-10-11T12:54:25.833Z,1009.8
2022-10-11T12:56:09.216Z,1009.8
2022-10-11T12:59:08.881Z,1009.8
2022-10-11T13:02:08.857Z,1009.8
2022-10-11T13:05:08.836Z,1009.8
2022-10-11T13:07:08.816Z,1009.8
2022-10-11T13:10:08.973Z,1009.8
2022-10-11T13:13:08.834Z,1009.8
2022-10-11T13:16:09.111Z,1009.8
2022-10-11T13:18:08.850Z,1009.8
2022-10-11T13:20:08.952Z,1009.8
2022-10-11T13:22:08.889Z,1009.8
2022-10-11T13:25:08.859Z,1009.7
2022-10-11T13:27:08.867Z,1009.8
2022-10-11T13:30:08.917Z,1009.7
2022-10-11T13:32:08.847Z,1009.7
2022-10-11T13:34:08.865Z,1009.7
2022-10-11T13:37:08.833Z,1009.7
2022-10-11T13:39:08.844Z,1009.6
2022-10-11T13:41:08.841Z,1009.6
2022-10-11T13:43:08.854Z,1009.6
2022-10-11T13:46:09.188Z,1009.6
2022-10-11T13:49:08.853Z,1009.5
2022-10-11T13:52:08.830Z,1009.5
2022-10-11T13:55:08.853Z,1009.5
2022-10-11T13:58:08.866Z,1009.5
2022-10-11T14:01:08.870Z,1009.6
2022-10-11T14:04:08.839Z,1009.6
2022-10-11T14:06:09.232Z,1009.6
2022-10-11T14:09:08.841Z,1009.6
2022-10-11T14:12:08.823Z,1009.6
2022-10-11T14:14:08.860Z,1009.6
2022-10-11T14:17:08.820Z,1009.6
2022-10-11T14:19:08.830Z,1009.6
2022-10-11T14:22:08.858Z,1009.5
2022-10-11T14:25:08.835Z,1009.6
2022-10-11T14:27:08.848Z,1009.5
2022-10-11T14:33:09.175Z,1009.6
2022-10-11T14:35:08.915Z,1009.5
2022-10-11T14:38:08.914Z,1009.5
2022-10-11T14:41:08.847Z,1009.6
2022-10-11T14:44:08.911Z,1009.6
2022-10-11T14:46:09.042Z,1009.6
2022-10-11T14:49:08.884Z,1009.6
2022-10-11T14:52:08.872Z,1009.7
2022-10-11T14:54:08.889Z,1009.6
2022-10-11T14:57:08.902Z,1009.6
2022-10-11T15:00:08.885Z,1009.6
2022-10-11T15:03:08.907Z,1009.6
2022-10-11T15:06:09.291Z,1009.6
2022-10-11T15:09:08.875Z,1009.6
2022-10-11T15:12:08.911Z,1009.6
2022-10-11T15:15:09.009Z,1009.6
2022-10-11T15:18:08.895Z,1009.6
2022-10-11T15:21:08.889Z,1009.5
2022-10-11T15:24:08.857Z,1009.6
2022-10-11T15:26:09.075Z,1009.5
2022-10-11T15:29:08.862Z,1009.5
2022-10-11T15:32:08.879Z,1009.6
2022-10-11T15:34:08.907Z,1009.6
2022-10-11T15:37:08.867Z,1009.6
2022-10-11T15:39:08.880Z,1009.6
2022-10-11T15:41:08.859Z,1009.6
2022-10-11T15:43:08.903Z,1009.6
2022-10-11T15:46:09.223Z,1009.6
2022-10-11T15:48:08.889Z,1009.6
2022-10-11T15:50:08.902Z,1009.6
2022-10-11T15:53:08.865Z,1009.6
2022-10-11T15:55:08.936Z,1009.7
2022-10-11T15:58:08.873Z,1009.6
2022-10-11T16:00:09.109Z,1009.6
2022-10-11T16:03:08.875Z,1009.6
2022-10-11T16:06:09.298Z,1009.6
2022-10-11T16:08:08.873Z,1009.6
2022-10-11T16:11:08.906Z,1009.6
2022-10-11T16:13:08.896Z,1009.6
2022-10-11T16:15:08.926Z,1009.6
2022-10-11T16:18:08.884Z,1009.5
2022-10-11T16:20:08.899Z,1009.6
2022-10-11T16:23:08.893Z,1009.5
2022-10-11T16:26:09.141Z,1009.5
2022-10-11T16:28:08.966Z,1009.5
2022-10-11T16:30:12.034Z,1009.6
2022-10-11T16:33:08.904Z,1009.6
2022-10-11T16:35:08.912Z,1009.5
2022-10-11T16:38:08.938Z,1009.5
2022-10-11T16:41:08.940Z,1009.5
2022-10-11T16:44:08.906Z,1009.5
2022-10-11T16:46:09.181Z,1009.6
2022-10-11T16:48:09.965Z,1009.6
2022-10-11T16:51:08.870Z,1009.6
2022-10-11T16:53:08.964Z,1009.6
2022-10-11T16:56:09.130Z,1009.6
2022-10-11T16:59:08.889Z,1009.6
2022-10-11T17:01:09.007Z,1009.6
2022-10-11T17:04:08.901Z,1009.6
2022-10-11T17:07:08.892Z,1009.7
2022-10-11T17:10:08.883Z,1009.6
2022-10-11T17:12:08.883Z,1009.6
2022-10-11T17:15:08.890Z,1009.6
2022-10-11T17:18:08.865Z,1009.6
2022-10-11T17:20:08.914Z,1009.6
2022-10-11T17:23:08.909Z,1009.6
2022-10-11T17:25:08.946Z,1009.6
2022-10-11T17:27:08.951Z,1009.6
2022-10-11T17:29:09.012Z,1009.6
2022-10-11T17:32:08.897Z,1009.6
2022-10-11T17:35:08.910Z,1009.6
2022-10-11T17:37:08.953Z,1009.6
2022-10-11T17:40:08.892Z,1009.6
2022-10-11T17:42:08.901Z,1009.6
2022-10-11T17:44:08.936Z,1009.6
2022-10-11T17:47:08.924Z,1009.6
2022-10-11T17:49:08.942Z,1009.7
2022-10-11T17:52:08.895Z,1009.7
2022-10-11T17:55:08.929Z,1009.7
2022-10-11T17:58:08.917Z,1009.7
2022-10-11T18:01:09.493Z,1009.7
2022-10-11T18:03:09.549Z,1009.7
2022-10-11T18:06:08.954Z,1009.7
2022-10-11T18:09:08.947Z,1009.7
2022-10-11T18:11:09.196Z,1009.7
2022-10-11T18:14:08.956Z,1009.7
2022-10-11T18:17:08.943Z,1009.7
2022-10-11T18:20:08.935Z,1009.7
2022-10-11T18:23:08.928Z,1009.7
2022-10-11T18:26:09.296Z,1009.7
2022-10-11T18:29:08.937Z,1009.7
2022-10-11T18:32:08.934Z,1009.7
2022-10-11T18:35:08.924Z,1009.7
2022-10-11T18:37:08.948Z,1009.7
2022-10-11T18:39:08.960Z,1009.7
2022-10-11T18:41:09.584Z,1009.7
2022-10-11T18:44:08.936Z,1009.7
2022-10-11T18:46:08.936Z,1009.7
2022-10-11T18:48:08.978Z,1009.8
2022-10-11T18:51:09.581Z,1009.7
2022-10-11T18:53:08.921Z,1009.8
2022-10-11T18:56:09.148Z,1009.7
2022-10-11T18:59:08.933Z,1009.8
2022-10-11T19:02:08.909Z,1009.7
2022-10-11T19:04:08.950Z,1009.8
2022-10-11T19:07:08.934Z,1009.8
2022-10-11T19:10:08.919Z,1009.8
2022-10-11T19:13:08.912Z,1009.7
2022-10-11T19:15:08.939Z,1009.7
2022-10-11T19:17:09.166Z,1009.7
2022-10-11T19:20:08.922Z,1009.7
2022-10-11T19:22:08.935Z,1009.7
2022-10-11T19:24:08.944Z,1009.8
2022-10-11T19:27:08.954Z,1009.7
2022-10-11T19:30:08.926Z,1009.8
2022-10-11T19:32:08.953Z,1009.8
2022-10-11T19:35:08.917Z,1009.7
2022-10-11T19:38:08.953Z,1009.7
2022-10-11T19:40:08.975Z,1009.7
2022-10-11T19:43:08.939Z,1009.7
2022-10-11T19:45:08.934Z,1009.7
2022-10-11T19:48:08.974Z,1009.7
2022-10-11T19:50:08.959Z,1009.7
2022-10-11T19:52:08.961Z,1009.7
2022-10-11T19:55:08.934Z,1009.7
2022-10-11T19:57:08.925Z,1009.8
2022-10-11T20:00:08.956Z,1009.8
2022-10-11T20:03:08.920Z,1009.8
2022-10-11T20:05:08.926Z,1009.8
2022-10-11T20:07:08.955Z,1009.8
2022-10-11T20:10:09.569Z,1009.8
2022-10-11T20:13:08.936Z,1009.9
2022-10-11T20:16:08.931Z,1009.9
2022-10-11T20:18:08.958Z,1009.8
2022-10-11T20:20:08.954Z,1009.8
2022-10-11T20:22:08.963Z,1009.8
2022-10-11T20:24:08.950Z,1009.8
2022-10-11T20:27:08.931Z,1009.8
2022-10-11T20:30:08.992Z,1009.8
2022-10-11T20:33:08.947Z,1009.8
2022-10-11T20:36:08.935Z,1009.9
2022-10-11T20:38:08.951Z,1009.8
2022-10-11T20:40:08.961Z,1009.8
2022-10-11T20:42:08.964Z,1009.8
2022-10-11T20:44:08.992Z,1009.8
2022-10-11T20:46:09.521Z,1009.8
2022-10-11T20:49:08.953Z,1009.8
2022-10-11T20:52:08.988Z,1009.8
2022-10-11T20:55:08.919Z,1009.7
2022-10-11T20:57:08.949Z,1009.7
2022-10-11T21:00:08.950Z,1009.7
2022-10-11T21:03:08.946Z,1009.7
2022-10-11T21:06:08.949Z,1009.7
2022-10-11T21:08:08.972Z,1009.7
2022-10-11T21:11:08.933Z,1009.8
2022-10-11T21:14:08.960Z,1009.8
2022-10-11T21:16:08.967Z,1009.8
2022-10-11T21:18:09.008Z,1009.8
2022-10-11T21:21:08.941Z,1009.8
2022-10-11T21:23:08.931Z,1009.8
2022-10-11T21:25:08.957Z,1009.8
2022-10-11T21:28:09.009Z,1009.7
2022-10-11T21:31:08.948Z,1009.8
2022-10-11T21:33:08.950Z,1009.8
2022-10-11T21:36:08.971Z,1009.7
2022-10-11T21:38:08.966Z,1009.7
2022-10-11T21:40:08.971Z,1009.7
2022-10-11T21:43:08.945Z,1009.7
2022-10-11T21:45:08.938Z,1009.7
2022-10-11T21:48:08.957Z,1009.7
2022-10-11T21:51:08.976Z,1009.7
2022-10-11T21:53:08.958Z,1009.7
2022-10-11T21:56:08.971Z,1009.7
2022-10-11T21:58:09.557Z,1009.7
2022-10-11T22:01:09.070Z,1009.6
2022-10-11T22:04:08.973Z,1009.6
2022-10-11T22:07:08.949Z,1009.7
2022-10-11T22:09:08.975Z,1009.7
2022-10-11T22:12:08.999Z,1009.6
2022-10-11T22:15:08.995Z,1009.7
2022-10-11T22:17:08.971Z,1009.6
2022-10-11T22:19:08.996Z,1009.6
2022-10-11T22:21:08.975Z,1009.6
2022-10-11T22:24:08.996Z,1009.6
2022-10-11T22:29:09.040Z,1009.5
2022-10-11T22:32:09.046Z,1009.4
2022-10-11T22:34:09.376Z,1009.5
2022-10-11T22:37:08.989Z,1009.4
2022-10-11T22:39:08.977Z,1009.4
2022-10-11T22:42:09.051Z,1009.4
2022-10-11T22:45:09.046Z,1009.4
2022-10-11T22:48:09.036Z,1009.4
2022-10-11T22:51:08.974Z,1009.3
2022-10-11T22:53:09.081Z,1009.3
2022-10-11T22:56:08.990Z,1009.3
2022-10-11T22:58:09.000Z,1009.3
2022-10-11T23:00:09.005Z,1009.3
2022-10-11T23:02:09.021Z,1009.3
2022-10-11T23:05:08.979Z,1009.3
2022-10-11T23:08:09.038Z,1009.3
2022-10-11T23:10:09.381Z,1009.3
2022-10-11T23:13:10.033Z,1009.3
2022-10-11T23:16:09.057Z,1009.3
2022-10-11T23:19:08.960Z,1009.3
2022-10-11T23:21:08.979Z,1009.3
2022-10-11T23:23:08.972Z,1009.3
2022-10-11T23:25:08.992Z,1009.3
2022-10-11T23:28:09.026Z,1009.2
2022-10-11T23:30:09.023Z,1009.2
2022-10-11T23:33:08.964Z,1009.2
2022-10-11T23:35:08.987Z,1009.2
2022-10-11T23:37:09.008Z,1009.2
2022-10-11T23:40:08.973Z,1009.2
2022-10-11T23:42:09.023Z,1009.2
2022-10-11T23:45:08.975Z,1009.2
2022-10-11T23:48:08.993Z,1009.3
2022-10-11T23:50:09.005Z,1009.2
2022-10-11T23:53:09.034Z,1009.2
2022-10-11T23:56:09.008Z,1009.3
2022-10-11T23:59:08.997Z,1009.3
